sensor_id;sensor_type;location;lat;lon;timestamp;temperature;humidity
8172;DHT22;4127;47.908;10.850;2022-09-01T00:01:43;14.40;99.90
8172;DHT22;4127;47.908;10.850;2022-09-01T00:04:13;14.50;99.90
8172;DHT22;4127;47.908;10.850;2022-09-01T00:06:42;14.60;99.90
8172;DHT22;4127;47.908;10.850;2022-09-01T00:09:12;14.60;99.90
8172;DHT22;4127;47.908;10.850;2022-09-01T00:11:42;14.50;99.90
8172;DHT22;4127;47.908;10.850;2022-09-01T00:14:18;14.50;99.90
8172;DHT22;4127;47.908;10.850;2022-09-01T00:17:03;14.40;99.90
8172;DHT22;4127;47.908;10.850;2022-09-01T00:19:30;14.30;99.90
8172;DHT22;4127;47.908;10.850;2022-09-01T00:21:59;14.50;99.90
8172;DHT22;4127;47.908;10.850;2022-09-01T00:24:27;14.30;99.90
8172;DHT22;4127;47.908;10.850;2022-09-01T00:26:55;14.30;99.90
8172;DHT22;4127;47.908;10.850;2022-09-01T00:29:24;14.40;99.90
8172;DHT22;4127;47.908;10.850;2022-09-01T00:31:51;14.40;99.90
8172;DHT22;4127;47.908;10.850;2022-09-01T00:34:19;14.50;99.90
8172;DHT22;4127;47.908;10.850;2022-09-01T00:36:46;14.50;99.90
8172;DHT22;4127;47.908;10.850;2022-09-01T00:39:14;14.50;99.90
8172;DHT22;4127;47.908;10.850;2022-09-01T00:41:42;14.60;99.90
8172;DHT22;4127;47.908;10.850;2022-09-01T00:44:16;14.50;99.90
8172;DHT22;4127;47.908;10.850;2022-09-01T00:46:46;14.50;99.90
8172;DHT22;4127;47.908;10.850;2022-09-01T00:49:42;14.50;99.90
8172;DHT22;4127;47.908;10.850;2022-09-01T00:52:18;14.30;99.90
8172;DHT22;4127;47.908;10.850;2022-09-01T00:54:53;14.20;99.90
8172;DHT22;4127;47.908;10.850;2022-09-01T00:57:21;14.20;99.90
8172;DHT22;4127;47.908;10.850;2022-09-01T00:59:53;14.10;99.90
8172;DHT22;4127;47.908;10.850;2022-09-01T01:02:20;14.10;99.90
8172;DHT22;4127;47.908;10.850;2022-09-01T01:04:47;14.10;99.90
8172;DHT22;4127;47.908;10.850;2022-09-01T01:07:15;14.00;99.90
8172;DHT22;4127;47.908;10.850;2022-09-01T01:09:43;14.00;99.90
8172;DHT22;4127;47.908;10.850;2022-09-01T01:12:11;13.90;99.90
8172;DHT22;4127;47.908;10.850;2022-09-01T01:14:39;13.90;99.90
8172;DHT22;4127;47.908;10.850;2022-09-01T01:17:11;13.80;99.90
8172;DHT22;4127;47.908;10.850;2022-09-01T01:19:47;13.60;99.90
8172;DHT22;4127;47.908;10.850;2022-09-01T01:22:54;13.60;99.90
8172;DHT22;4127;47.908;10.850;2022-09-01T01:25:44;13.60;99.90
8172;DHT22;4127;47.908;10.850;2022-09-01T01:28:14;13.50;99.90
8172;DHT22;4127;47.908;10.850;2022-09-01T01:30:47;13.60;99.90
8172;DHT22;4127;47.908;10.850;2022-09-01T01:33:23;13.60;99.90
8172;DHT22;4127;47.908;10.850;2022-09-01T01:35:51;13.60;99.90
8172;DHT22;4127;47.908;10.850;2022-09-01T01:38:19;13.50;99.90
8172;DHT22;4127;47.908;10.850;2022-09-01T01:40:49;13.50;99.90
8172;DHT22;4127;47.908;10.850;2022-09-01T01:43:17;13.60;99.90
8172;DHT22;4127;47.908;10.850;2022-09-01T01:45:49;13.60;99.90
8172;DHT22;4127;47.908;10.850;2022-09-01T01:48:18;13.60;99.90
8172;DHT22;4127;47.908;10.850;2022-09-01T01:50:53;13.60;99.90
8172;DHT22;4127;47.908;10.850;2022-09-01T01:53:21;13.60;99.90
8172;DHT22;4127;47.908;10.850;2022-09-01T01:55:48;13.70;99.90
8172;DHT22;4127;47.908;10.850;2022-09-01T01:58:20;13.60;99.90
8172;DHT22;4127;47.908;10.850;2022-09-01T02:00:48;13.60;99.90
8172;DHT22;4127;47.908;10.850;2022-09-01T02:03:18;13.60;99.90
8172;DHT22;4127;47.908;10.850;2022-09-01T02:05:49;13.60;99.90
8172;DHT22;4127;47.908;10.850;2022-09-01T02:08:16;13.60;99.90
8172;DHT22;4127;47.908;10.850;2022-09-01T02:10:49;13.60;99.90
8172;DHT22;4127;47.908;10.850;2022-09-01T02:13:22;13.60;99.90
8172;DHT22;4127;47.908;10.850;2022-09-01T02:16:03;13.60;99.90
8172;DHT22;4127;47.908;10.850;2022-09-01T02:18:36;13.60;99.90
8172;DHT22;4127;47.908;10.850;2022-09-01T02:21:05;13.60;99.90
8172;DHT22;4127;47.908;10.850;2022-09-01T02:23:43;13.60;99.90
8172;DHT22;4127;47.908;10.850;2022-09-01T02:26:10;13.70;99.90
8172;DHT22;4127;47.908;10.850;2022-09-01T02:28:46;13.70;99.90
8172;DHT22;4127;47.908;10.850;2022-09-01T02:33:49;13.70;99.90
8172;DHT22;4127;47.908;10.850;2022-09-01T02:36:17;13.80;99.90
8172;DHT22;4127;47.908;10.850;2022-09-01T02:38:46;13.80;99.90
8172;DHT22;4127;47.908;10.850;2022-09-01T02:41:19;13.80;99.90
8172;DHT22;4127;47.908;10.850;2022-09-01T02:43:49;13.80;99.90
8172;DHT22;4127;47.908;10.850;2022-09-01T02:46:16;13.90;99.90
8172;DHT22;4127;47.908;10.850;2022-09-01T02:48:44;14.00;99.90
8172;DHT22;4127;47.908;10.850;2022-09-01T02:51:14;13.90;99.90
8172;DHT22;4127;47.908;10.850;2022-09-01T02:53:43;13.90;99.90
8172;DHT22;4127;47.908;10.850;2022-09-01T02:56:15;13.80;99.90
8172;DHT22;4127;47.908;10.850;2022-09-01T02:58:44;13.80;99.90
8172;DHT22;4127;47.908;10.850;2022-09-01T03:01:22;13.70;99.90
8172;DHT22;4127;47.908;10.850;2022-09-01T03:03:53;13.70;99.90
8172;DHT22;4127;47.908;10.850;2022-09-01T03:06:21;13.60;99.90
8172;DHT22;4127;47.908;10.850;2022-09-01T03:08:51;13.60;99.90
8172;DHT22;4127;47.908;10.850;2022-09-01T03:11:19;13.60;99.90
8172;DHT22;4127;47.908;10.850;2022-09-01T03:13:46;13.50;99.90
8172;DHT22;4127;47.908;10.850;2022-09-01T03:16:12;13.50;99.90
8172;DHT22;4127;47.908;10.850;2022-09-01T03:18:40;13.50;99.90
8172;DHT22;4127;47.908;10.850;2022-09-01T03:21:09;13.50;99.90
8172;DHT22;4127;47.908;10.850;2022-09-01T03:23:35;13.60;99.90
8172;DHT22;4127;47.908;10.850;2022-09-01T03:26:03;13.60;99.90
8172;DHT22;4127;47.908;10.850;2022-09-01T03:28:30;13.60;99.90
8172;DHT22;4127;47.908;10.850;2022-09-01T03:30:57;13.70;99.90
8172;DHT22;4127;47.908;10.850;2022-09-01T03:33:26;13.70;99.90
8172;DHT22;4127;47.908;10.850;2022-09-01T03:35:53;13.70;99.90
8172;DHT22;4127;47.908;10.850;2022-09-01T03:38:22;13.70;99.90
8172;DHT22;4127;47.908;10.850;2022-09-01T03:40:53;13.70;99.90
8172;DHT22;4127;47.908;10.850;2022-09-01T03:43:20;13.80;99.90
8172;DHT22;4127;47.908;10.850;2022-09-01T03:45:50;13.70;99.90
8172;DHT22;4127;47.908;10.850;2022-09-01T03:48:17;13.60;99.90
8172;DHT22;4127;47.908;10.850;2022-09-01T03:50:45;13.50;99.90
8172;DHT22;4127;47.908;10.850;2022-09-01T03:53:19;13.40;99.90
8172;DHT22;4127;47.908;10.850;2022-09-01T03:55:47;13.30;99.90
8172;DHT22;4127;47.908;10.850;2022-09-01T03:58:16;13.30;99.90
8172;DHT22;4127;47.908;10.850;2022-09-01T04:00:51;13.30;99.90
8172;DHT22;4127;47.908;10.850;2022-09-01T04:03:25;13.20;99.90
8172;DHT22;4127;47.908;10.850;2022-09-01T04:05:54;13.30;99.90
8172;DHT22;4127;47.908;10.850;2022-09-01T04:08:22;13.10;99.90
8172;DHT22;4127;47.908;10.850;2022-09-01T04:11:12;13.10;99.90
8172;DHT22;4127;47.908;10.850;2022-09-01T04:13:40;13.00;99.90
8172;DHT22;4127;47.908;10.850;2022-09-01T04:16:20;13.10;99.90
8172;DHT22;4127;47.908;10.850;2022-09-01T04:19:07;13.20;99.90
8172;DHT22;4127;47.908;10.850;2022-09-01T04:21:49;13.10;99.90
8172;DHT22;4127;47.908;10.850;2022-09-01T04:24:17;13.10;99.90
8172;DHT22;4127;47.908;10.850;2022-09-01T04:26:46;13.20;99.90
8172;DHT22;4127;47.908;10.850;2022-09-01T04:29:15;13.20;99.90
8172;DHT22;4127;47.908;10.850;2022-09-01T04:31:44;13.30;99.90
8172;DHT22;4127;47.908;10.850;2022-09-01T04:34:14;13.40;99.90
8172;DHT22;4127;47.908;10.850;2022-09-01T04:36:43;13.40;99.90
8172;DHT22;4127;47.908;10.850;2022-09-01T04:39:11;13.40;99.90
8172;DHT22;4127;47.908;10.850;2022-09-01T04:41:44;13.40;99.90
8172;DHT22;4127;47.908;10.850;2022-09-01T04:44:16;13.40;99.90
8172;DHT22;4127;47.908;10.850;2022-09-01T04:46:45;13.50;99.90
8172;DHT22;4127;47.908;10.850;2022-09-01T04:49:16;13.40;99.90
8172;DHT22;4127;47.908;10.850;2022-09-01T04:51:49;13.40;99.90
8172;DHT22;4127;47.908;10.850;2022-09-01T04:54:20;13.40;99.90
8172;DHT22;4127;47.908;10.850;2022-09-01T04:56:49;13.40;99.90
8172;DHT22;4127;47.908;10.850;2022-09-01T04:59:20;13.30;99.90
8172;DHT22;4127;47.908;10.850;2022-09-01T05:01:48;13.40;99.90
8172;DHT22;4127;47.908;10.850;2022-09-01T05:04:19;13.40;99.90
8172;DHT22;4127;47.908;10.850;2022-09-01T05:06:50;13.50;99.90
8172;DHT22;4127;47.908;10.850;2022-09-01T05:09:22;13.50;99.90
8172;DHT22;4127;47.908;10.850;2022-09-01T05:12:07;13.50;99.90
8172;DHT22;4127;47.908;10.850;2022-09-01T05:14:45;13.50;99.90
8172;DHT22;4127;47.908;10.850;2022-09-01T05:17:14;13.50;99.90
8172;DHT22;4127;47.908;10.850;2022-09-01T05:19:45;13.60;99.90
8172;DHT22;4127;47.908;10.850;2022-09-01T05:22:13;13.60;99.90
8172;DHT22;4127;47.908;10.850;2022-09-01T05:24:41;13.60;99.90
8172;DHT22;4127;47.908;10.850;2022-09-01T05:27:08;13.60;99.90
8172;DHT22;4127;47.908;10.850;2022-09-01T05:29:36;13.60;99.90
8172;DHT22;4127;47.908;10.850;2022-09-01T05:32:04;13.60;99.90
8172;DHT22;4127;47.908;10.850;2022-09-01T05:34:36;13.70;99.90
8172;DHT22;4127;47.908;10.850;2022-09-01T05:37:06;13.60;99.90
8172;DHT22;4127;47.908;10.850;2022-09-01T05:39:36;13.70;99.90
8172;DHT22;4127;47.908;10.850;2022-09-01T05:42:05;13.60;99.90
8172;DHT22;4127;47.908;10.850;2022-09-01T05:44:34;13.60;99.90
8172;DHT22;4127;47.908;10.850;2022-09-01T05:47:02;13.70;99.90
8172;DHT22;4127;47.908;10.850;2022-09-01T05:49:31;13.60;99.90
8172;DHT22;4127;47.908;10.850;2022-09-01T05:51:58;13.60;99.90
8172;DHT22;4127;47.908;10.850;2022-09-01T05:54:26;13.50;99.90
8172;DHT22;4127;47.908;10.850;2022-09-01T05:56:55;13.50;99.90
8172;DHT22;4127;47.908;10.850;2022-09-01T05:59:44;13.50;99.90
8172;DHT22;4127;47.908;10.850;2022-09-01T06:02:12;13.40;99.90
8172;DHT22;4127;47.908;10.850;2022-09-01T06:04:39;13.40;99.90
8172;DHT22;4127;47.908;10.850;2022-09-01T06:07:11;13.50;99.90
8172;DHT22;4127;47.908;10.850;2022-09-01T06:09:46;13.50;99.90
8172;DHT22;4127;47.908;10.850;2022-09-01T06:12:15;13.50;99.90
8172;DHT22;4127;47.908;10.850;2022-09-01T06:14:51;13.50;99.90
8172;DHT22;4127;47.908;10.850;2022-09-01T06:17:23;13.60;99.90
8172;DHT22;4127;47.908;10.850;2022-09-01T06:19:52;13.70;99.90
8172;DHT22;4127;47.908;10.850;2022-09-01T06:22:22;13.80;99.90
8172;DHT22;4127;47.908;10.850;2022-09-01T06:24:50;13.80;99.90
8172;DHT22;4127;47.908;10.850;2022-09-01T06:27:27;13.90;99.90
8172;DHT22;4127;47.908;10.850;2022-09-01T06:29:55;13.90;99.90
8172;DHT22;4127;47.908;10.850;2022-09-01T06:32:24;14.00;99.90
8172;DHT22;4127;47.908;10.850;2022-09-01T06:34:52;14.00;99.90
8172;DHT22;4127;47.908;10.850;2022-09-01T06:37:20;14.00;99.90
8172;DHT22;4127;47.908;10.850;2022-09-01T06:39:48;14.10;99.90
8172;DHT22;4127;47.908;10.850;2022-09-01T06:42:15;14.10;99.90
8172;DHT22;4127;47.908;10.850;2022-09-01T06:44:43;14.20;99.90
8172;DHT22;4127;47.908;10.850;2022-09-01T06:47:11;14.10;99.90
8172;DHT22;4127;47.908;10.850;2022-09-01T06:49:38;14.10;99.90
8172;DHT22;4127;47.908;10.850;2022-09-01T06:52:07;14.10;99.90
8172;DHT22;4127;47.908;10.850;2022-09-01T06:54:34;14.00;99.90
8172;DHT22;4127;47.908;10.850;2022-09-01T06:57:05;13.90;99.90
8172;DHT22;4127;47.908;10.850;2022-09-01T06:59:52;14.00;99.90
8172;DHT22;4127;47.908;10.850;2022-09-01T07:02:20;14.00;99.90
8172;DHT22;4127;47.908;10.850;2022-09-01T07:04:52;14.00;99.90
8172;DHT22;4127;47.908;10.850;2022-09-01T07:07:19;14.10;99.90
8172;DHT22;4127;47.908;10.850;2022-09-01T07:10:08;14.20;99.90
8172;DHT22;4127;47.908;10.850;2022-09-01T07:12:55;14.50;99.90
8172;DHT22;4127;47.908;10.850;2022-09-01T07:15:43;14.70;99.90
8172;DHT22;4127;47.908;10.850;2022-09-01T07:18:31;14.70;99.90
8172;DHT22;4127;47.908;10.850;2022-09-01T07:20:58;14.80;99.90
8172;DHT22;4127;47.908;10.850;2022-09-01T07:23:45;14.60;99.90
8172;DHT22;4127;47.908;10.850;2022-09-01T07:26:34;14.70;99.90
8172;DHT22;4127;47.908;10.850;2022-09-01T07:29:04;14.80;99.90
8172;DHT22;4127;47.908;10.850;2022-09-01T07:31:35;15.00;99.90
8172;DHT22;4127;47.908;10.850;2022-09-01T07:34:24;15.10;99.90
8172;DHT22;4127;47.908;10.850;2022-09-01T07:37:07;15.10;99.90
8172;DHT22;4127;47.908;10.850;2022-09-01T07:39:53;15.30;99.90
8172;DHT22;4127;47.908;10.850;2022-09-01T07:42:22;15.40;99.90
8172;DHT22;4127;47.908;10.850;2022-09-01T07:45:10;15.40;99.90
8172;DHT22;4127;47.908;10.850;2022-09-01T07:47:55;15.50;99.90
8172;DHT22;4127;47.908;10.850;2022-09-01T07:50:22;15.60;99.90
8172;DHT22;4127;47.908;10.850;2022-09-01T07:53:33;15.50;99.90
8172;DHT22;4127;47.908;10.850;2022-09-01T07:56:07;15.60;99.90
8172;DHT22;4127;47.908;10.850;2022-09-01T07:58:37;15.70;99.90
8172;DHT22;4127;47.908;10.850;2022-09-01T08:01:13;15.90;99.90
8172;DHT22;4127;47.908;10.850;2022-09-01T08:03:43;16.10;99.90
8172;DHT22;4127;47.908;10.850;2022-09-01T08:06:13;16.10;99.90
8172;DHT22;4127;47.908;10.850;2022-09-01T08:08:40;16.10;99.90
8172;DHT22;4127;47.908;10.850;2022-09-01T08:11:07;16.00;99.90
8172;DHT22;4127;47.908;10.850;2022-09-01T08:13:36;15.80;99.90
8172;DHT22;4127;47.908;10.850;2022-09-01T08:16:09;16.00;99.90
8172;DHT22;4127;47.908;10.850;2022-09-01T08:18:44;16.20;99.90
8172;DHT22;4127;47.908;10.850;2022-09-01T08:21:15;16.40;99.90
8172;DHT22;4127;47.908;10.850;2022-09-01T08:23:42;16.60;99.90
8172;DHT22;4127;47.908;10.850;2022-09-01T08:26:13;16.70;99.90
8172;DHT22;4127;47.908;10.850;2022-09-01T08:28:41;16.50;99.90
8172;DHT22;4127;47.908;10.850;2022-09-01T08:31:17;16.70;99.90
8172;DHT22;4127;47.908;10.850;2022-09-01T08:33:47;16.60;99.90
8172;DHT22;4127;47.908;10.850;2022-09-01T08:36:15;16.70;99.90
8172;DHT22;4127;47.908;10.850;2022-09-01T08:38:49;16.80;99.90
8172;DHT22;4127;47.908;10.850;2022-09-01T08:44:34;16.70;99.90
8172;DHT22;4127;47.908;10.850;2022-09-01T08:47:09;16.70;99.90
8172;DHT22;4127;47.908;10.850;2022-09-01T08:49:41;16.60;99.90
8172;DHT22;4127;47.908;10.850;2022-09-01T08:57:39;16.50;99.90
8172;DHT22;4127;47.908;10.850;2022-09-01T09:00:09;16.30;99.90
8172;DHT22;4127;47.908;10.850;2022-09-01T09:14:00;16.40;99.90
8172;DHT22;4127;47.908;10.850;2022-09-01T09:16:39;16.00;99.90
8172;DHT22;4127;47.908;10.850;2022-09-01T09:19:16;16.20;99.90
8172;DHT22;4127;47.908;10.850;2022-09-01T09:21:47;16.20;99.90
8172;DHT22;4127;47.908;10.850;2022-09-01T09:24:32;16.60;99.90
8172;DHT22;4127;47.908;10.850;2022-09-01T09:27:23;17.00;99.90
8172;DHT22;4127;47.908;10.850;2022-09-01T09:29:53;17.40;99.90
8172;DHT22;4127;47.908;10.850;2022-09-01T09:32:24;17.20;99.90
8172;DHT22;4127;47.908;10.850;2022-09-01T09:35:31;16.70;99.90
8172;DHT22;4127;47.908;10.850;2022-09-01T09:41:05;16.50;99.90
8172;DHT22;4127;47.908;10.850;2022-09-01T09:44:15;17.10;99.90
8172;DHT22;4127;47.908;10.850;2022-09-01T09:46:45;16.90;99.90
8172;DHT22;4127;47.908;10.850;2022-09-01T09:49:22;17.10;99.90
8172;DHT22;4127;47.908;10.850;2022-09-01T09:54:57;17.20;99.90
8172;DHT22;4127;47.908;10.850;2022-09-01T09:57:24;17.20;99.90
8172;DHT22;4127;47.908;10.850;2022-09-01T10:00:01;17.70;99.90
8172;DHT22;4127;47.908;10.850;2022-09-01T10:02:35;18.10;99.90
8172;DHT22;4127;47.908;10.850;2022-09-01T10:05:39;18.40;99.90
8172;DHT22;4127;47.908;10.850;2022-09-01T10:10:54;18.70;99.90
8172;DHT22;4127;47.908;10.850;2022-09-01T10:13:25;19.00;99.90
8172;DHT22;4127;47.908;10.850;2022-09-01T10:15:55;19.20;99.90
8172;DHT22;4127;47.908;10.850;2022-09-01T10:18:37;19.30;99.90
8172;DHT22;4127;47.908;10.850;2022-09-01T10:21:09;19.30;99.90
8172;DHT22;4127;47.908;10.850;2022-09-01T10:23:37;19.60;99.90
8172;DHT22;4127;47.908;10.850;2022-09-01T10:26:13;19.40;99.90
8172;DHT22;4127;47.908;10.850;2022-09-01T10:29:06;19.20;99.90
8172;DHT22;4127;47.908;10.850;2022-09-01T10:31:39;18.10;99.90
8172;DHT22;4127;47.908;10.850;2022-09-01T10:34:08;17.70;99.90
8172;DHT22;4127;47.908;10.850;2022-09-01T10:36:41;18.00;99.90
8172;DHT22;4127;47.908;10.850;2022-09-01T10:39:14;18.00;99.90
8172;DHT22;4127;47.908;10.850;2022-09-01T10:41:44;17.80;99.90
8172;DHT22;4127;47.908;10.850;2022-09-01T10:44:31;18.30;99.90
8172;DHT22;4127;47.908;10.850;2022-09-01T10:47:30;18.80;99.90
8172;DHT22;4127;47.908;10.850;2022-09-01T10:50:03;19.00;99.90
8172;DHT22;4127;47.908;10.850;2022-09-01T10:55:18;19.50;99.90
8172;DHT22;4127;47.908;10.850;2022-09-01T11:01:14;18.60;99.90
8172;DHT22;4127;47.908;10.850;2022-09-01T11:04:01;18.20;99.90
8172;DHT22;4127;47.908;10.850;2022-09-01T11:06:51;18.10;99.90
8172;DHT22;4127;47.908;10.850;2022-09-01T11:09:42;17.70;99.90
8172;DHT22;4127;47.908;10.850;2022-09-01T11:14:58;17.80;99.90
8172;DHT22;4127;47.908;10.850;2022-09-01T11:17:26;17.70;99.90
8172;DHT22;4127;47.908;10.850;2022-09-01T11:19:58;17.50;99.90
8172;DHT22;4127;47.908;10.850;2022-09-01T11:22:33;17.70;99.90
8172;DHT22;4127;47.908;10.850;2022-09-01T11:30:20;19.00;99.90
8172;DHT22;4127;47.908;10.850;2022-09-01T11:32:56;19.30;99.90
8172;DHT22;4127;47.908;10.850;2022-09-01T11:35:27;19.30;99.90
8172;DHT22;4127;47.908;10.850;2022-09-01T11:37:56;18.70;99.90
8172;DHT22;4127;47.908;10.850;2022-09-01T11:40:30;18.10;99.90
8172;DHT22;4127;47.908;10.850;2022-09-01T11:43:02;18.20;99.90
8172;DHT22;4127;47.908;10.850;2022-09-01T11:45:31;18.20;99.90
8172;DHT22;4127;47.908;10.850;2022-09-01T11:48:08;18.10;99.90
8172;DHT22;4127;47.908;10.850;2022-09-01T11:50:39;18.50;99.90
8172;DHT22;4127;47.908;10.850;2022-09-01T11:53:25;18.90;99.90
8172;DHT22;4127;47.908;10.850;2022-09-01T11:55:54;19.40;99.90
8172;DHT22;4127;47.908;10.850;2022-09-01T12:00:54;19.20;99.90
8172;DHT22;4127;47.908;10.850;2022-09-01T12:03:27;19.30;99.90
8172;DHT22;4127;47.908;10.850;2022-09-01T12:06:01;19.30;99.90
8172;DHT22;4127;47.908;10.850;2022-09-01T12:08:32;19.20;99.90
8172;DHT22;4127;47.908;10.850;2022-09-01T12:11:06;18.90;99.90
8172;DHT22;4127;47.908;10.850;2022-09-01T12:13:34;18.70;99.90
8172;DHT22;4127;47.908;10.850;2022-09-01T12:16:07;19.00;99.90
8172;DHT22;4127;47.908;10.850;2022-09-01T12:18:51;19.30;99.90
8172;DHT22;4127;47.908;10.850;2022-09-01T12:21:25;19.50;99.90
8172;DHT22;4127;47.908;10.850;2022-09-01T12:23:54;19.50;99.90
8172;DHT22;4127;47.908;10.850;2022-09-01T12:26:35;19.00;99.90
8172;DHT22;4127;47.908;10.850;2022-09-01T12:29:03;18.70;99.90
8172;DHT22;4127;47.908;10.850;2022-09-01T12:31:31;18.70;99.90
8172;DHT22;4127;47.908;10.850;2022-09-01T12:33:58;19.00;99.90
8172;DHT22;4127;47.908;10.850;2022-09-01T12:36:33;18.90;99.90
8172;DHT22;4127;47.908;10.850;2022-09-01T12:39:21;19.00;99.90
8172;DHT22;4127;47.908;10.850;2022-09-01T12:42:05;19.10;99.90
8172;DHT22;4127;47.908;10.850;2022-09-01T12:49:50;18.60;99.90
8172;DHT22;4127;47.908;10.850;2022-09-01T12:52:23;18.80;99.90
8172;DHT22;4127;47.908;10.850;2022-09-01T12:57:33;19.00;99.90
8172;DHT22;4127;47.908;10.850;2022-09-01T13:02:43;19.80;99.90
8172;DHT22;4127;47.908;10.850;2022-09-01T13:05:34;20.10;98.80
8172;DHT22;4127;47.908;10.850;2022-09-01T13:08:13;20.40;97.80
8172;DHT22;4127;47.908;10.850;2022-09-01T13:10:43;20.70;98.30
8172;DHT22;4127;47.908;10.850;2022-09-01T13:13:11;20.80;97.50
8172;DHT22;4127;47.908;10.850;2022-09-01T13:15:43;21.10;97.50
8172;DHT22;4127;47.908;10.850;2022-09-01T13:18:10;20.40;98.90
8172;DHT22;4127;47.908;10.850;2022-09-01T13:20:37;19.40;98.50
8172;DHT22;4127;47.908;10.850;2022-09-01T13:23:04;18.80;99.40
8172;DHT22;4127;47.908;10.850;2022-09-01T13:25:31;18.60;99.90
8172;DHT22;4127;47.908;10.850;2022-09-01T13:27:57;18.90;99.90
8172;DHT22;4127;47.908;10.850;2022-09-01T13:30:27;19.20;99.90
8172;DHT22;4127;47.908;10.850;2022-09-01T13:32:56;19.50;99.90
8172;DHT22;4127;47.908;10.850;2022-09-01T13:35:43;19.40;99.80
8172;DHT22;4127;47.908;10.850;2022-09-01T13:38:09;19.50;99.40
8172;DHT22;4127;47.908;10.850;2022-09-01T13:40:37;19.70;99.90
8172;DHT22;4127;47.908;10.850;2022-09-01T13:43:04;19.70;99.90
8172;DHT22;4127;47.908;10.850;2022-09-01T13:45:31;19.80;99.40
8172;DHT22;4127;47.908;10.850;2022-09-01T13:47:59;19.80;99.00
8172;DHT22;4127;47.908;10.850;2022-09-01T13:50:44;19.50;98.80
8172;DHT22;4127;47.908;10.850;2022-09-01T13:53:31;19.60;99.50
8172;DHT22;4127;47.908;10.850;2022-09-01T13:55:58;19.70;99.10
8172;DHT22;4127;47.908;10.850;2022-09-01T13:58:25;19.90;98.10
8172;DHT22;4127;47.908;10.850;2022-09-01T14:00:52;20.00;99.40
8172;DHT22;4127;47.908;10.850;2022-09-01T14:03:22;20.40;97.80
8172;DHT22;4127;47.908;10.850;2022-09-01T14:05:49;20.40;97.90
8172;DHT22;4127;47.908;10.850;2022-09-01T14:08:18;20.30;99.30
8172;DHT22;4127;47.908;10.850;2022-09-01T14:10:48;20.50;98.30
8172;DHT22;4127;47.908;10.850;2022-09-01T14:13:20;20.50;96.20
8172;DHT22;4127;47.908;10.850;2022-09-01T14:15:48;20.30;97.10
8172;DHT22;4127;47.908;10.850;2022-09-01T14:18:16;20.10;96.60
8172;DHT22;4127;47.908;10.850;2022-09-01T14:20:46;19.90;96.60
8172;DHT22;4127;47.908;10.850;2022-09-01T14:23:14;20.00;97.50
8172;DHT22;4127;47.908;10.850;2022-09-01T14:25:44;20.30;96.60
8172;DHT22;4127;47.908;10.850;2022-09-01T14:28:11;20.10;97.60
8172;DHT22;4127;47.908;10.850;2022-09-01T14:30:42;20.10;97.00
8172;DHT22;4127;47.908;10.850;2022-09-01T14:33:09;20.20;96.50
8172;DHT22;4127;47.908;10.850;2022-09-01T14:35:39;20.30;94.70
8172;DHT22;4127;47.908;10.850;2022-09-01T14:38:06;20.30;95.80
8172;DHT22;4127;47.908;10.850;2022-09-01T14:40:37;20.60;95.90
8172;DHT22;4127;47.908;10.850;2022-09-01T14:43:06;20.50;96.30
8172;DHT22;4127;47.908;10.850;2022-09-01T14:45:35;20.70;95.60
8172;DHT22;4127;47.908;10.850;2022-09-01T14:48:05;21.10;94.60
8172;DHT22;4127;47.908;10.850;2022-09-01T14:50:39;21.00;94.90
8172;DHT22;4127;47.908;10.850;2022-09-01T14:53:07;20.70;93.80
8172;DHT22;4127;47.908;10.850;2022-09-01T14:55:34;20.50;94.80
8172;DHT22;4127;47.908;10.850;2022-09-01T14:58:01;20.30;95.20
8172;DHT22;4127;47.908;10.850;2022-09-01T15:00:30;20.00;96.40
8172;DHT22;4127;47.908;10.850;2022-09-01T15:02:57;19.90;96.80
8172;DHT22;4127;47.908;10.850;2022-09-01T15:05:24;19.90;96.60
8172;DHT22;4127;47.908;10.850;2022-09-01T15:07:52;19.70;96.50
8172;DHT22;4127;47.908;10.850;2022-09-01T15:10:22;19.80;96.50
8172;DHT22;4127;47.908;10.850;2022-09-01T15:12:52;19.60;95.90
8172;DHT22;4127;47.908;10.850;2022-09-01T15:15:20;19.50;96.30
8172;DHT22;4127;47.908;10.850;2022-09-01T15:17:47;19.40;97.10
8172;DHT22;4127;47.908;10.850;2022-09-01T15:20:14;19.60;96.20
8172;DHT22;4127;47.908;10.850;2022-09-01T15:23:00;19.60;95.90
8172;DHT22;4127;47.908;10.850;2022-09-01T15:25:27;19.80;96.40
8172;DHT22;4127;47.908;10.850;2022-09-01T15:27:54;20.10;96.30
8172;DHT22;4127;47.908;10.850;2022-09-01T15:30:21;20.00;96.50
8172;DHT22;4127;47.908;10.850;2022-09-01T15:32:50;20.10;96.20
8172;DHT22;4127;47.908;10.850;2022-09-01T15:35:17;19.60;97.60
8172;DHT22;4127;47.908;10.850;2022-09-01T15:37:46;19.30;97.60
8172;DHT22;4127;47.908;10.850;2022-09-01T15:40:14;19.10;96.90
8172;DHT22;4127;47.908;10.850;2022-09-01T15:42:41;18.90;98.10
8172;DHT22;4127;47.908;10.850;2022-09-01T15:45:12;18.70;97.90
8172;DHT22;4127;47.908;10.850;2022-09-01T15:47:39;18.80;98.10
8172;DHT22;4127;47.908;10.850;2022-09-01T15:50:12;19.00;98.10
8172;DHT22;4127;47.908;10.850;2022-09-01T15:52:54;19.00;98.60
8172;DHT22;4127;47.908;10.850;2022-09-01T15:55:42;19.10;97.50
8172;DHT22;4127;47.908;10.850;2022-09-01T15:58:11;19.10;97.10
8172;DHT22;4127;47.908;10.850;2022-09-01T16:00:39;19.20;96.60
8172;DHT22;4127;47.908;10.850;2022-09-01T16:03:07;19.20;97.70
8172;DHT22;4127;47.908;10.850;2022-09-01T16:05:36;18.90;97.50
8172;DHT22;4127;47.908;10.850;2022-09-01T16:08:04;18.60;98.10
8172;DHT22;4127;47.908;10.850;2022-09-01T16:10:34;18.60;98.80
8172;DHT22;4127;47.908;10.850;2022-09-01T16:13:03;18.50;98.30
8172;DHT22;4127;47.908;10.850;2022-09-01T16:15:30;18.60;98.20
8172;DHT22;4127;47.908;10.850;2022-09-01T16:21:00;18.60;98.10
8172;DHT22;4127;47.908;10.850;2022-09-01T16:23:40;18.60;99.00
8172;DHT22;4127;47.908;10.850;2022-09-01T16:26:07;18.70;97.50
8172;DHT22;4127;47.908;10.850;2022-09-01T16:28:35;18.60;97.60
8172;DHT22;4127;47.908;10.850;2022-09-01T16:31:15;18.70;97.60
8172;DHT22;4127;47.908;10.850;2022-09-01T16:33:52;18.50;97.90
8172;DHT22;4127;47.908;10.850;2022-09-01T16:36:44;18.50;97.20
8172;DHT22;4127;47.908;10.850;2022-09-01T16:39:47;18.70;96.70
8172;DHT22;4127;47.908;10.850;2022-09-01T16:45:36;18.70;97.50
8172;DHT22;4127;47.908;10.850;2022-09-01T16:48:29;18.60;97.00
8172;DHT22;4127;47.908;10.850;2022-09-01T16:59:51;18.30;98.00
8172;DHT22;4127;47.908;10.850;2022-09-01T17:05:27;18.10;99.10
8172;DHT22;4127;47.908;10.850;2022-09-01T17:08:32;17.90;99.40
8172;DHT22;4127;47.908;10.850;2022-09-01T17:11:16;17.70;99.50
8172;DHT22;4127;47.908;10.850;2022-09-01T17:13:50;17.60;99.50
8172;DHT22;4127;47.908;10.850;2022-09-01T17:16:33;17.50;99.60
8172;DHT22;4127;47.908;10.850;2022-09-01T17:19:06;17.50;99.60
8172;DHT22;4127;47.908;10.850;2022-09-01T17:21:38;17.60;99.90
8172;DHT22;4127;47.908;10.850;2022-09-01T17:26:52;17.40;99.90
8172;DHT22;4127;47.908;10.850;2022-09-01T17:29:30;17.30;99.90
8172;DHT22;4127;47.908;10.850;2022-09-01T17:40:22;17.10;99.90
8172;DHT22;4127;47.908;10.850;2022-09-01T17:46:04;17.30;99.90
8172;DHT22;4127;47.908;10.850;2022-09-01T17:48:53;17.40;99.90
8172;DHT22;4127;47.908;10.850;2022-09-01T18:00:00;17.40;99.90